Pays
Station

 

Conditions  météo  pour  Rio Cuarto Aerodrome  -  Argentine    Argentine

  
16 °C
    
 
 

METAR pour Rio Cuarto Aerodrome :

SAOC 232100Z 05013KT 9999 SCT025 16/10 Q1019

 

Voici le bulletin pour Rio Cuarto Aerodrome - Argentine.
 
Le bulletin a été fait il y a une heure et 5 minutes, à 21:00 UTC .
Le vent soufflait à la vitesse de 6.7 mètres par seconde de Nord-est (050°).
 
La température était de 16 °C, avec un point de rosée à 10 °C.
La pression atmosphérique était de 1019 hPa.
L'humidité relative était de 67.5%.
 
Il y avait 3 à 4/8ème de nébulosité à une hauteur de 762 mètres.
 
La visibilité globale était de supérieure à 10 kilomètres.
 

 
 
 

Pays :   A   B   C   D   E   F   G   H   I   J   K   L   M   N   O   P   Q   R   S   T   U   V   W   Y   Z

 

Partenaires :  Info Météo avec Met'info
Météo Marine avec MeteoMarine.net
Infos Site  |  Infos Légales  |  Crédits  |  Confidentialité
Contactez-nous  |  Ajouter aux favoris
© 2013-2019 METAR - Tous droits réservés